createdAt,value
2022-11-13T00:01:44.294Z,99006.75
2022-11-13T00:04:30.354Z,99000.78
2022-11-13T00:07:16.699Z,99014.59
2022-11-13T00:10:02.604Z,98990.53
2022-11-13T00:12:48.966Z,99001.03
2022-11-13T00:15:35.227Z,98994.97
2022-11-13T00:18:21.016Z,99004.34
2022-11-13T00:21:14.880Z,98989.69
2022-11-13T00:24:01.594Z,98987.75
2022-11-13T00:26:47.979Z,98990.97
2022-11-13T00:29:34.278Z,98989.78
2022-11-13T00:32:20.915Z,98999.13
2022-11-13T00:35:07.638Z,98998.94
2022-11-13T00:37:54.735Z,98996.22
2022-11-13T00:40:40.473Z,98995.44
2022-11-13T00:43:27.860Z,98994.56
2022-11-13T00:46:13.648Z,98987.56
2022-11-13T00:48:59.821Z,99010.84
2022-11-13T00:51:46.045Z,99004.97
2022-11-13T00:54:31.815Z,98979.34
2022-11-13T00:57:18.111Z,99009.28
2022-11-13T01:00:05.027Z,98999.91
2022-11-13T01:02:51.436Z,99005.88
2022-11-13T01:05:39.150Z,99017.25
2022-11-13T01:08:25.393Z,99020.72
2022-11-13T01:11:17.555Z,99018.94
2022-11-13T01:14:03.429Z,99002.56
2022-11-13T01:16:49.436Z,99018.81
2022-11-13T01:19:35.404Z,99011.91
2022-11-13T01:22:23.727Z,99001.56
2022-11-13T01:25:09.674Z,99023.09
2022-11-13T01:27:55.950Z,99010.25
2022-11-13T01:30:42.033Z,99004.16
2022-11-13T01:33:28.056Z,99013.44
2022-11-13T01:36:19.490Z,98998.84
2022-11-13T01:39:05.845Z,99001.31
2022-11-13T01:41:51.807Z,98999.34
2022-11-13T01:44:52.878Z,99020.00
2022-11-13T01:47:38.749Z,99001.78
2022-11-13T01:50:25.322Z,98997.50
2022-11-13T01:53:11.931Z,98994.75
2022-11-13T01:55:58.307Z,98995.41
2022-11-13T01:58:51.607Z,98991.81
2022-11-13T02:01:37.779Z,98996.81
2022-11-13T02:04:25.253Z,98997.81
2022-11-13T02:07:15.210Z,98999.50
2022-11-13T02:10:01.365Z,98991.81
2022-11-13T02:12:50.968Z,98994.38
2022-11-13T02:15:37.729Z,98986.66
2022-11-13T02:18:26.498Z,98999.53
2022-11-13T02:21:12.522Z,98981.53
2022-11-13T02:24:45.364Z,98976.50
2022-11-13T02:27:40.802Z,98979.91
2022-11-13T02:30:33.082Z,98982.53
2022-11-13T02:33:23.593Z,98985.97
2022-11-13T02:36:12.122Z,98990.97
2022-11-13T02:39:00.957Z,98997.94
2022-11-13T02:41:46.745Z,98975.50
2022-11-13T02:44:32.672Z,98969.00
2022-11-13T02:47:18.659Z,98960.31
2022-11-13T02:50:06.475Z,98965.50
2022-11-13T02:52:52.799Z,98973.09
2022-11-13T02:55:38.959Z,98986.13
2022-11-13T02:58:25.346Z,98964.75
2022-11-13T03:01:11.469Z,98956.19
2022-11-13T03:03:58.473Z,98975.00
2022-11-13T03:06:44.791Z,98945.91
2022-11-13T03:09:31.016Z,98941.47
2022-11-13T03:12:17.253Z,98940.53
2022-11-13T03:15:03.860Z,98949.91
2022-11-13T03:17:49.769Z,98960.25
2022-11-13T03:20:41.644Z,98956.00
2022-11-13T03:23:28.423Z,98962.84
2022-11-13T03:26:17.700Z,98945.66
2022-11-13T03:29:04.125Z,98957.63
2022-11-13T03:31:50.028Z,98961.97
2022-11-13T03:34:36.025Z,98960.31
2022-11-13T03:37:22.311Z,98952.50
2022-11-13T03:40:08.796Z,98972.19
2022-11-13T03:42:54.813Z,98956.16
2022-11-13T03:45:40.972Z,98962.13
2022-11-13T03:48:29.659Z,98971.41
2022-11-13T03:51:15.845Z,98971.50
2022-11-13T03:54:01.800Z,98968.16
2022-11-13T03:56:47.803Z,98973.09
2022-11-13T03:59:34.066Z,98978.13
2022-11-13T04:02:19.985Z,98971.00
2022-11-13T04:05:08.056Z,98968.34
2022-11-13T04:07:54.193Z,98988.47
2022-11-13T04:10:40.260Z,98966.53
2022-11-13T04:13:26.458Z,98950.78
2022-11-13T04:16:12.461Z,98962.31
2022-11-13T04:18:58.535Z,98972.94
2022-11-13T04:21:44.556Z,98993.22
2022-11-13T04:24:30.636Z,99002.63
2022-11-13T04:27:16.778Z,99009.50
2022-11-13T04:30:04.728Z,98990.69
2022-11-13T04:32:51.016Z,99009.69
2022-11-13T04:35:37.145Z,99020.22
2022-11-13T04:38:23.364Z,99030.84
2022-11-13T04:41:30.996Z,99014.56
2022-11-13T04:44:16.798Z,98999.75
2022-11-13T04:47:03.120Z,99006.41
2022-11-13T04:49:48.866Z,99003.66
2022-11-13T04:52:34.990Z,99006.84
2022-11-13T04:55:20.898Z,99006.03
2022-11-13T04:58:07.069Z,99011.09
2022-11-13T05:00:52.991Z,99015.44
2022-11-13T05:03:39.247Z,99010.31
2022-11-13T05:06:25.136Z,99003.47
2022-11-13T05:09:11.615Z,99004.41
2022-11-13T05:11:57.847Z,99002.19
2022-11-13T05:14:43.717Z,99003.25
2022-11-13T05:17:30.631Z,99018.69
2022-11-13T05:20:17.075Z,99041.13
2022-11-13T05:23:03.101Z,99040.97
2022-11-13T05:25:49.692Z,99048.88
2022-11-13T05:28:37.230Z,99045.59
2022-11-13T05:31:23.223Z,99048.38
2022-11-13T05:34:09.672Z,99048.50
2022-11-13T05:36:55.755Z,99052.72
2022-11-13T05:39:41.637Z,99055.91
2022-11-13T05:42:27.583Z,99044.75
2022-11-13T05:45:13.524Z,99056.03
2022-11-13T05:47:59.431Z,99049.59
2022-11-13T05:50:45.781Z,99046.28
2022-11-13T05:53:34.081Z,99036.63
2022-11-13T05:56:23.626Z,99029.16
2022-11-13T05:59:09.860Z,99042.75
2022-11-13T06:01:55.940Z,99070.41
2022-11-13T06:04:41.966Z,99073.88
2022-11-13T06:07:28.265Z,99116.72
2022-11-13T06:10:14.322Z,99134.78
2022-11-13T06:13:00.233Z,99144.78
2022-11-13T06:15:46.603Z,99139.56
2022-11-13T06:18:33.931Z,99166.16
2022-11-13T06:21:22.387Z,99142.69
2022-11-13T06:24:11.087Z,99152.88
2022-11-13T06:26:56.885Z,99149.81
2022-11-13T06:29:43.227Z,99163.31
2022-11-13T06:32:30.923Z,99151.25
2022-11-13T06:35:16.968Z,99142.56
2022-11-13T06:38:02.925Z,99159.94
2022-11-13T06:40:49.176Z,99144.25
2022-11-13T06:43:35.474Z,99177.44
2022-11-13T06:46:23.961Z,99176.91
2022-11-13T06:49:09.978Z,99182.59
2022-11-13T06:51:56.215Z,99184.06
2022-11-13T06:54:42.381Z,99207.44
2022-11-13T06:57:30.697Z,99186.47
2022-11-13T07:00:17.209Z,99199.06
2022-11-13T07:03:03.382Z,99202.25
2022-11-13T07:05:49.869Z,99197.25
2022-11-13T07:08:37.066Z,99205.59
2022-11-13T07:11:23.882Z,99226.22
2022-11-13T07:14:12.933Z,99213.66
2022-11-13T07:17:09.239Z,99211.75
2022-11-13T07:19:58.548Z,99215.50
2022-11-13T07:22:55.019Z,99214.47
2022-11-13T07:25:41.387Z,99240.66
2022-11-13T07:28:27.800Z,99244.44
2022-11-13T07:31:15.000Z,99225.28
2022-11-13T07:34:01.281Z,99236.94
2022-11-13T07:36:47.454Z,99246.25
2022-11-13T07:39:33.515Z,99253.31
2022-11-13T07:42:19.770Z,99245.47
2022-11-13T07:45:07.319Z,99263.25
2022-11-13T07:47:57.886Z,99268.72
2022-11-13T07:50:43.726Z,99237.56
2022-11-13T07:53:30.303Z,99241.19
2022-11-13T07:56:21.776Z,99242.59
2022-11-13T07:59:11.549Z,99262.19
2022-11-13T08:01:57.565Z,99262.88
2022-11-13T08:04:43.771Z,99260.59
2022-11-13T08:07:31.097Z,99260.44
2022-11-13T08:10:18.413Z,99250.84
2022-11-13T08:13:07.795Z,99245.16
2022-11-13T08:15:53.908Z,99249.91
2022-11-13T08:18:40.248Z,99261.91
2022-11-13T08:21:26.259Z,99240.97
2022-11-13T08:24:12.400Z,99264.81
2022-11-13T08:26:58.183Z,99275.13
2022-11-13T08:29:44.185Z,99255.44
2022-11-13T08:32:31.239Z,99251.00
2022-11-13T08:35:19.765Z,99260.84
2022-11-13T08:38:08.627Z,99268.72
2022-11-13T08:41:08.390Z,99280.81
2022-11-13T08:43:55.708Z,99276.34
2022-11-13T08:46:41.842Z,99269.34
2022-11-13T08:49:28.283Z,99287.56
2022-11-13T08:52:15.288Z,99285.13
2022-11-13T08:55:01.732Z,99291.22
2022-11-13T08:57:47.695Z,99298.94
2022-11-13T09:00:34.201Z,99301.28
2022-11-13T09:03:20.596Z,99294.25
2022-11-13T09:06:08.235Z,99305.97
2022-11-13T09:08:54.504Z,99299.34
2022-11-13T09:11:43.141Z,99296.50
2022-11-13T09:14:29.612Z,99286.75
2022-11-13T09:17:15.411Z,99308.06
2022-11-13T09:20:04.188Z,99291.97
2022-11-13T09:23:07.519Z,99314.56
2022-11-13T09:25:53.785Z,99282.38
2022-11-13T09:28:40.011Z,99281.84
2022-11-13T09:31:26.271Z,99282.75
2022-11-13T09:34:12.591Z,99288.59
2022-11-13T09:36:58.591Z,99308.09
2022-11-13T09:39:44.490Z,99288.53
2022-11-13T09:42:33.086Z,99305.53
2022-11-13T09:45:19.355Z,99298.53
2022-11-13T09:48:13.555Z,99310.56
2022-11-13T09:51:06.589Z,99311.63
2022-11-13T09:53:52.799Z,99339.69
2022-11-13T09:57:01.882Z,99335.81
2022-11-13T10:00:02.362Z,99355.13
2022-11-13T10:03:59.258Z,99357.47
2022-11-13T10:07:00.318Z,99378.44
2022-11-13T10:10:05.782Z,99371.94
2022-11-13T10:12:54.652Z,99384.81
2022-11-13T10:15:44.526Z,99373.78
2022-11-13T10:18:36.151Z,99381.41
2022-11-13T10:21:44.130Z,99387.22
2022-11-13T10:24:40.864Z,99387.16
2022-11-13T10:27:26.773Z,99401.00
2022-11-13T10:30:16.676Z,99429.00
2022-11-13T10:33:06.774Z,99406.97
2022-11-13T10:36:04.254Z,99413.81
2022-11-13T10:39:02.468Z,99415.34
2022-11-13T10:41:54.291Z,99414.41
2022-11-13T10:44:41.221Z,99414.59
2022-11-13T10:48:01.927Z,99444.63
2022-11-13T10:50:37.762Z,99431.63
2022-11-13T10:53:26.580Z,99448.41
2022-11-13T10:56:35.413Z,99443.66
2022-11-13T10:59:21.459Z,99444.28
2022-11-13T11:02:21.453Z,99447.69
2022-11-13T11:05:18.563Z,99440.69
2022-11-13T11:08:08.693Z,99455.28
2022-11-13T11:11:27.010Z,99458.25
2022-11-13T11:14:26.460Z,99458.88
2022-11-13T11:17:16.126Z,99466.63
2022-11-13T11:20:37.128Z,99455.16
2022-11-13T11:23:45.278Z,99476.59
2022-11-13T11:27:01.406Z,99474.16
2022-11-13T11:30:20.996Z,99485.19
2022-11-13T11:33:20.312Z,99491.03
2022-11-13T11:36:12.031Z,99496.91
2022-11-13T11:39:39.852Z,99508.81
2022-11-13T11:42:47.797Z,99499.72
2022-11-13T11:45:44.739Z,99537.94
2022-11-13T11:48:32.330Z,99507.44
2022-11-13T11:51:34.937Z,99501.44
2022-11-13T11:54:34.470Z,99511.09
2022-11-13T11:57:23.305Z,99519.38
2022-11-13T12:00:13.605Z,99514.19
2022-11-13T12:03:02.508Z,99536.16
2022-11-13T12:06:13.040Z,99538.38
2022-11-13T12:09:04.870Z,99541.22
2022-11-13T12:11:56.495Z,99542.09
2022-11-13T12:15:14.480Z,99556.53
2022-11-13T12:18:26.912Z,99548.41
2022-11-13T12:21:22.084Z,99559.75
2022-11-13T12:24:58.070Z,99557.84
2022-11-13T12:27:53.724Z,99562.31
2022-11-13T12:31:08.775Z,99580.94
2022-11-13T12:34:17.454Z,99575.19
2022-11-13T12:37:11.526Z,99588.13
2022-11-13T12:40:04.720Z,99600.06
2022-11-13T12:43:06.330Z,99596.88
2022-11-13T12:45:54.725Z,99607.13
2022-11-13T12:48:48.270Z,99604.75
2022-11-13T12:51:40.427Z,99629.38
2022-11-13T12:54:37.045Z,99640.97
2022-11-13T12:57:30.097Z,99632.44
2022-11-13T13:00:28.966Z,99640.94
2022-11-13T13:03:37.323Z,99636.25
2022-11-13T13:06:23.396Z,99645.41
2022-11-13T13:09:25.624Z,99640.06
2022-11-13T13:12:23.989Z,99668.16
2022-11-13T13:15:31.812Z,99657.31
2022-11-13T13:18:17.900Z,99663.91
2022-11-13T13:21:06.666Z,99681.22
2022-11-13T13:23:53.558Z,99681.97
2022-11-13T13:26:47.580Z,99665.75
2022-11-13T13:29:33.984Z,99683.50
2022-11-13T13:32:32.796Z,99692.91
2022-11-13T13:35:39.407Z,99687.97
2022-11-13T13:38:36.524Z,99697.03
2022-11-13T13:41:44.290Z,99700.81
2022-11-13T13:44:41.732Z,99707.06
2022-11-13T13:47:32.191Z,99711.28
2022-11-13T13:50:24.656Z,99716.75
2022-11-13T13:53:16.604Z,99727.88
2022-11-13T13:56:04.398Z,99729.72
2022-11-13T13:58:52.092Z,99722.03
2022-11-13T14:01:38.034Z,99726.72
2022-11-13T14:04:25.496Z,99729.94
2022-11-13T14:07:31.594Z,99732.63
2022-11-13T14:10:20.558Z,99737.78
2022-11-13T14:13:06.751Z,99733.88
2022-11-13T14:16:07.402Z,99740.38
2022-11-13T14:19:03.511Z,99742.75
2022-11-13T14:21:53.315Z,99750.38
2022-11-13T14:25:00.789Z,99745.97
2022-11-13T14:27:47.084Z,99751.91
2022-11-13T14:30:33.180Z,99756.06
2022-11-13T14:33:24.857Z,99762.00
2022-11-13T14:36:12.145Z,99777.19
2022-11-13T14:38:58.940Z,99769.38
2022-11-13T14:41:55.991Z,99789.25
2022-11-13T14:44:42.289Z,99780.09
2022-11-13T14:47:37.485Z,99783.84
2022-11-13T14:50:30.957Z,99793.47
2022-11-13T14:53:33.857Z,99799.47
2022-11-13T14:56:19.846Z,99791.06
2022-11-13T14:59:26.978Z,99798.16
2022-11-13T15:02:13.304Z,99797.88
2022-11-13T15:04:59.339Z,99801.06
2022-11-13T15:07:46.407Z,99807.06
2022-11-13T15:10:32.495Z,99823.22
2022-11-13T15:13:18.975Z,99820.81
2022-11-13T15:16:06.354Z,99820.06
2022-11-13T15:19:05.148Z,99833.75
2022-11-13T15:22:20.246Z,99830.38
2022-11-13T15:24:57.263Z,99836.44
2022-11-13T15:27:43.724Z,99845.72
2022-11-13T15:30:29.756Z,99858.44
2022-11-13T15:33:16.563Z,99845.94
2022-11-13T15:36:02.735Z,99854.25
2022-11-13T15:38:48.979Z,99850.69
2022-11-13T15:41:36.363Z,99858.94
2022-11-13T15:44:22.349Z,99860.47
2022-11-13T15:47:30.148Z,99860.69
2022-11-13T15:50:16.867Z,99861.13
2022-11-13T15:53:05.425Z,99863.22
2022-11-13T15:55:52.009Z,99880.84
2022-11-13T15:58:37.909Z,99871.72
2022-11-13T16:01:24.328Z,99875.00
2022-11-13T16:04:13.096Z,99883.19
2022-11-13T16:06:58.997Z,99895.16
2022-11-13T16:09:45.709Z,99896.78
2022-11-13T16:12:31.788Z,99891.75
2022-11-13T16:15:18.175Z,99886.34
2022-11-13T16:18:04.741Z,99907.50
2022-11-13T16:20:50.520Z,99903.41
2022-11-13T16:23:36.382Z,99915.41
2022-11-13T16:26:25.100Z,99916.28
2022-11-13T16:29:19.757Z,99923.69
2022-11-13T16:32:06.467Z,99906.75
2022-11-13T16:34:52.308Z,99911.06
2022-11-13T16:37:39.284Z,99919.22
2022-11-13T16:40:26.726Z,99928.81
2022-11-13T16:43:13.256Z,99921.84
2022-11-13T16:46:00.459Z,99929.13
2022-11-13T16:48:47.999Z,99929.13
2022-11-13T16:51:33.901Z,99927.22
2022-11-13T16:54:20.202Z,99930.09
2022-11-13T16:57:06.464Z,99933.84
2022-11-13T16:59:52.452Z,99933.75
2022-11-13T17:02:39.259Z,99941.50
2022-11-13T17:05:25.554Z,99912.84
2022-11-13T17:08:13.020Z,99942.63
2022-11-13T17:10:59.844Z,99930.81
2022-11-13T17:13:51.052Z,99938.72
2022-11-13T17:16:37.960Z,99947.28
2022-11-13T17:19:23.992Z,99936.19
2022-11-13T17:22:14.391Z,99948.16
2022-11-13T17:25:00.727Z,99948.16
2022-11-13T17:27:47.643Z,99956.75
2022-11-13T17:30:34.179Z,99960.06
2022-11-13T17:33:20.787Z,99959.31
2022-11-13T17:36:09.120Z,99964.09
2022-11-13T17:38:55.499Z,99947.19
2022-11-13T17:41:41.786Z,99973.50
2022-11-13T17:44:28.217Z,99979.50
2022-11-13T17:47:14.295Z,99970.88
2022-11-13T17:50:06.765Z,99966.09
2022-11-13T17:52:53.436Z,99984.06
2022-11-13T17:55:39.809Z,99991.59
2022-11-13T17:58:26.644Z,99985.34
2022-11-13T18:01:19.411Z,99992.38
2022-11-13T18:04:05.578Z,99984.19
2022-11-13T18:06:52.385Z,99986.28
2022-11-13T18:09:38.670Z,99995.22
2022-11-13T18:12:24.993Z,99997.78
2022-11-13T18:15:11.406Z,100008.44
2022-11-13T18:17:57.983Z,99996.34
2022-11-13T18:20:44.359Z,100008.44
2022-11-13T18:23:31.189Z,100008.56
2022-11-13T18:26:19.348Z,100012.53
2022-11-13T18:29:05.517Z,100013.50
2022-11-13T18:31:51.547Z,100021.69
2022-11-13T18:34:37.927Z,100027.34
2022-11-13T18:37:24.312Z,100026.75
2022-11-13T18:40:11.138Z,100016.63
2022-11-13T18:42:57.241Z,100010.31
2022-11-13T18:45:43.647Z,100017.19
2022-11-13T18:48:30.928Z,100017.09
2022-11-13T18:51:20.027Z,100017.09
2022-11-13T18:54:09.822Z,100016.91
2022-11-13T18:56:56.494Z,100016.75
2022-11-13T18:59:42.724Z,100012.25
2022-11-13T19:02:31.710Z,100024.78
2022-11-13T19:05:17.721Z,100010.44
2022-11-13T19:08:03.869Z,100023.25
2022-11-13T19:10:50.240Z,100021.88
2022-11-13T19:13:37.371Z,100019.25
2022-11-13T19:16:26.035Z,100020.19
2022-11-13T19:19:22.614Z,100019.84
2022-11-13T19:22:09.144Z,100029.00
2022-11-13T19:24:55.348Z,100021.50
2022-11-13T19:27:41.378Z,100033.56
2022-11-13T19:30:27.918Z,100023.19
2022-11-13T19:33:14.120Z,100033.22
2022-11-13T19:36:09.849Z,100037.97
2022-11-13T19:38:56.472Z,100024.78
2022-11-13T19:41:42.426Z,100034.34
2022-11-13T19:44:28.608Z,100044.66
2022-11-13T19:47:14.881Z,100036.75
2022-11-13T19:50:00.891Z,100032.00
2022-11-13T19:52:46.995Z,100026.53
2022-11-13T19:55:34.869Z,100034.78
2022-11-13T19:58:20.862Z,100041.31
2022-11-13T20:01:14.234Z,100041.56
2022-11-13T20:04:02.458Z,100036.56
2022-11-13T20:06:48.814Z,100038.50
2022-11-13T20:09:34.890Z,100033.31
2022-11-13T20:12:21.072Z,100059.69
2022-11-13T20:15:07.344Z,100034.34
2022-11-13T20:17:53.455Z,100037.69
2022-11-13T20:20:43.610Z,100052.75
2022-11-13T20:23:29.540Z,100039.38
2022-11-13T20:26:19.182Z,100046.34
2022-11-13T20:29:05.247Z,100038.56
2022-11-13T20:31:52.162Z,100050.53
2022-11-13T20:34:38.124Z,100050.91
2022-11-13T20:37:24.437Z,100063.06
2022-11-13T20:40:11.306Z,100075.81
2022-11-13T20:42:57.724Z,100095.78
2022-11-13T20:45:44.234Z,100092.00
2022-11-13T20:48:30.653Z,100096.22
2022-11-13T20:51:20.538Z,100096.56
2022-11-13T20:54:06.762Z,100098.84
2022-11-13T20:56:52.481Z,100110.09
2022-11-13T20:59:38.190Z,100113.50
2022-11-13T21:02:24.000Z,100114.75
2022-11-13T21:05:09.711Z,100130.84
2022-11-13T21:07:56.098Z,100126.88
2022-11-13T21:10:42.162Z,100126.72
2022-11-13T21:13:28.559Z,100123.88
2022-11-13T21:16:15.767Z,100130.56
2022-11-13T21:19:01.852Z,100128.72
2022-11-13T21:21:48.090Z,100126.66
2022-11-13T21:24:34.431Z,100127.69
2022-11-13T21:27:20.648Z,100136.09
2022-11-13T21:30:07.054Z,100145.06
2022-11-13T21:32:53.271Z,100151.13
2022-11-13T21:35:38.938Z,100128.69
2022-11-13T21:38:25.136Z,100140.47
2022-11-13T21:41:22.701Z,100143.72
2022-11-13T21:44:10.804Z,100132.34
2022-11-13T21:46:56.875Z,100138.13
2022-11-13T21:49:43.062Z,100130.50
2022-11-13T21:52:31.002Z,100130.19
2022-11-13T21:55:17.032Z,100133.75
2022-11-13T21:58:03.231Z,100141.56
2022-11-13T22:00:49.246Z,100141.56
2022-11-13T22:03:35.255Z,100142.34
2022-11-13T22:06:25.903Z,100149.44
2022-11-13T22:09:23.391Z,100149.81
2022-11-13T22:12:10.397Z,100140.91
2022-11-13T22:14:56.297Z,100147.66
2022-11-13T22:17:42.649Z,100159.41
2022-11-13T22:20:28.993Z,100155.88
2022-11-13T22:23:16.381Z,100167.75
2022-11-13T22:26:16.512Z,100164.78
2022-11-13T22:29:02.447Z,100159.31
2022-11-13T22:31:48.801Z,100166.84
2022-11-13T22:34:35.154Z,100175.28
2022-11-13T22:37:21.414Z,100169.69
2022-11-13T22:40:08.464Z,100180.94
2022-11-13T22:42:55.592Z,100180.72
2022-11-13T22:45:41.854Z,100178.41
2022-11-13T22:48:28.251Z,100177.00
2022-11-13T22:51:17.574Z,100180.16
2022-11-13T22:54:09.671Z,100184.84
2022-11-13T22:56:56.791Z,100177.06
2022-11-13T22:59:42.671Z,100195.63
2022-11-13T23:02:28.581Z,100200.44
2022-11-13T23:05:14.930Z,100189.59
2022-11-13T23:08:01.073Z,100191.94
2022-11-13T23:10:54.079Z,100199.03
2022-11-13T23:13:44.794Z,100215.03
2022-11-13T23:16:31.972Z,100188.25
2022-11-13T23:19:18.207Z,100178.28
2022-11-13T23:22:04.185Z,100198.13
2022-11-13T23:24:49.984Z,100206.03
2022-11-13T23:27:36.275Z,100199.69
2022-11-13T23:30:22.194Z,100193.44
2022-11-13T23:33:08.954Z,100183.63
2022-11-13T23:35:55.116Z,100197.53
2022-11-13T23:38:42.134Z,100205.53
2022-11-13T23:41:28.017Z,100213.44
2022-11-13T23:44:13.550Z,100210.78
2022-11-13T23:46:59.607Z,100212.28
2022-11-13T23:49:45.768Z,100220.53
2022-11-13T23:52:31.575Z,100223.47
2022-11-13T23:55:17.884Z,100225.06
2022-11-13T23:58:05.777Z,100220.84
